sensor_id;sensor_type;location;lat;lon;timestamp;P1;durP1;ratioP1;P2;durP2;ratioP2
51124;SDS011;37163;55.556;39.108;2022-09-09T00:06:31;4.78;;;1.63;;
51124;SDS011;37163;55.556;39.108;2022-09-09T00:14:59;4.22;;;1.80;;
51124;SDS011;37163;55.556;39.108;2022-09-09T00:17:31;3.28;;;1.50;;
51124;SDS011;37163;55.556;39.108;2022-09-09T00:23:21;3.17;;;1.83;;
51124;SDS011;37163;55.556;39.108;2022-09-09T00:25:59;4.25;;;1.67;;
51124;SDS011;37163;55.556;39.108;2022-09-09T00:28:29;5.00;;;2.28;;
51124;SDS011;37163;55.556;39.108;2022-09-09T00:31:17;4.00;;;1.90;;
51124;SDS011;37163;55.556;39.108;2022-09-09T00:33:46;4.15;;;1.70;;
51124;SDS011;37163;55.556;39.108;2022-09-09T00:36:17;4.00;;;2.08;;
51124;SDS011;37163;55.556;39.108;2022-09-09T00:38:46;3.35;;;1.92;;
51124;SDS011;37163;55.556;39.108;2022-09-09T00:44:27;3.53;;;1.60;;
51124;SDS011;37163;55.556;39.108;2022-09-09T00:55:28;1.50;;;1.23;;
51124;SDS011;37163;55.556;39.108;2022-09-09T01:00:57;2.70;;;1.50;;
51124;SDS011;37163;55.556;39.108;2022-09-09T01:03:36;2.50;;;1.50;;
51124;SDS011;37163;55.556;39.108;2022-09-09T01:11:21;2.35;;;1.30;;
51124;SDS011;37163;55.556;39.108;2022-09-09T01:13:49;2.83;;;1.40;;
51124;SDS011;37163;55.556;39.108;2022-09-09T01:16:20;3.95;;;1.75;;
51124;SDS011;37163;55.556;39.108;2022-09-09T01:18:47;2.47;;;1.27;;
51124;SDS011;37163;55.556;39.108;2022-09-09T01:26:32;1.92;;;1.30;;
51124;SDS011;37163;55.556;39.108;2022-09-09T01:29:13;2.03;;;1.35;;
51124;SDS011;37163;55.556;39.108;2022-09-09T01:31:51;3.05;;;1.65;;
51124;SDS011;37163;55.556;39.108;2022-09-09T01:34:20;2.50;;;1.40;;
51124;SDS011;37163;55.556;39.108;2022-09-09T01:36:59;3.20;;;1.98;;
51124;SDS011;37163;55.556;39.108;2022-09-09T01:39:27;3.15;;;1.73;;
51124;SDS011;37163;55.556;39.108;2022-09-09T01:42:00;5.65;;;1.80;;
51124;SDS011;37163;55.556;39.108;2022-09-09T01:44:27;3.17;;;1.80;;
51124;SDS011;37163;55.556;39.108;2022-09-09T01:46:55;1.92;;;1.23;;
51124;SDS011;37163;55.556;39.108;2022-09-09T01:49:22;4.57;;;1.83;;
51124;SDS011;37163;55.556;39.108;2022-09-09T01:51:51;3.72;;;2.13;;
51124;SDS011;37163;55.556;39.108;2022-09-09T01:54:36;3.30;;;1.90;;
51124;SDS011;37163;55.556;39.108;2022-09-09T01:57:24;9.02;;;2.38;;
51124;SDS011;37163;55.556;39.108;2022-09-09T02:03:08;3.95;;;1.90;;
51124;SDS011;37163;55.556;39.108;2022-09-09T02:06:26;3.15;;;1.90;;
51124;SDS011;37163;55.556;39.108;2022-09-09T02:09:04;3.00;;;1.73;;
51124;SDS011;37163;55.556;39.108;2022-09-09T02:11:32;5.25;;;1.75;;
51124;SDS011;37163;55.556;39.108;2022-09-09T02:14:08;2.88;;;1.52;;
51124;SDS011;37163;55.556;39.108;2022-09-09T02:16:47;4.00;;;1.95;;
51124;SDS011;37163;55.556;39.108;2022-09-09T02:21:59;3.08;;;1.73;;
51124;SDS011;37163;55.556;39.108;2022-09-09T02:24:30;2.40;;;1.70;;
51124;SDS011;37163;55.556;39.108;2022-09-09T02:27:12;3.03;;;1.73;;
51124;SDS011;37163;55.556;39.108;2022-09-09T02:29:40;2.83;;;1.80;;
51124;SDS011;37163;55.556;39.108;2022-09-09T02:32:26;3.00;;;2.00;;
51124;SDS011;37163;55.556;39.108;2022-09-09T02:35:10;3.20;;;1.73;;
51124;SDS011;37163;55.556;39.108;2022-09-09T02:37:42;2.80;;;1.65;;
51124;SDS011;37163;55.556;39.108;2022-09-09T02:40:10;3.45;;;2.08;;
51124;SDS011;37163;55.556;39.108;2022-09-09T02:42:43;2.72;;;1.75;;
51124;SDS011;37163;55.556;39.108;2022-09-09T02:45:19;4.07;;;2.33;;
51124;SDS011;37163;55.556;39.108;2022-09-09T02:56:29;3.05;;;1.75;;
51124;SDS011;37163;55.556;39.108;2022-09-09T02:59:02;3.72;;;2.05;;
51124;SDS011;37163;55.556;39.108;2022-09-09T03:01:30;3.53;;;2.00;;
51124;SDS011;37163;55.556;39.108;2022-09-09T03:03:58;4.60;;;1.90;;
51124;SDS011;37163;55.556;39.108;2022-09-09T03:06:24;3.53;;;1.80;;
51124;SDS011;37163;55.556;39.108;2022-09-09T03:09:00;3.60;;;1.83;;
51124;SDS011;37163;55.556;39.108;2022-09-09T03:11:29;3.70;;;2.17;;
51124;SDS011;37163;55.556;39.108;2022-09-09T03:13:56;2.72;;;1.75;;
51124;SDS011;37163;55.556;39.108;2022-09-09T03:16:24;3.97;;;1.73;;
51124;SDS011;37163;55.556;39.108;2022-09-09T03:18:53;2.72;;;2.05;;
51124;SDS011;37163;55.556;39.108;2022-09-09T03:21:19;3.33;;;1.85;;
51124;SDS011;37163;55.556;39.108;2022-09-09T03:23:46;2.97;;;1.60;;
51124;SDS011;37163;55.556;39.108;2022-09-09T03:26:12;3.58;;;1.95;;
51124;SDS011;37163;55.556;39.108;2022-09-09T03:28:44;3.33;;;1.58;;
51124;SDS011;37163;55.556;39.108;2022-09-09T03:31:13;2.90;;;1.85;;
51124;SDS011;37163;55.556;39.108;2022-09-09T03:33:42;3.55;;;1.63;;
51124;SDS011;37163;55.556;39.108;2022-09-09T03:36:12;2.58;;;1.65;;
51124;SDS011;37163;55.556;39.108;2022-09-09T03:38:38;4.03;;;2.00;;
51124;SDS011;37163;55.556;39.108;2022-09-09T03:41:06;2.90;;;1.60;;
51124;SDS011;37163;55.556;39.108;2022-09-09T03:43:34;2.67;;;1.70;;
51124;SDS011;37163;55.556;39.108;2022-09-09T03:46:00;3.47;;;2.00;;
51124;SDS011;37163;55.556;39.108;2022-09-09T03:48:28;4.95;;;1.77;;
51124;SDS011;37163;55.556;39.108;2022-09-09T03:50:55;3.53;;;1.90;;
51124;SDS011;37163;55.556;39.108;2022-09-09T03:53:24;3.33;;;1.88;;
51124;SDS011;37163;55.556;39.108;2022-09-09T03:55:52;3.40;;;1.75;;
51124;SDS011;37163;55.556;39.108;2022-09-09T04:01:30;3.05;;;1.95;;
51124;SDS011;37163;55.556;39.108;2022-09-09T04:03:57;4.05;;;1.92;;
51124;SDS011;37163;55.556;39.108;2022-09-09T04:06:24;2.95;;;1.58;;
51124;SDS011;37163;55.556;39.108;2022-09-09T04:08:51;3.17;;;1.48;;
51124;SDS011;37163;55.556;39.108;2022-09-09T04:11:19;4.15;;;1.85;;
51124;SDS011;37163;55.556;39.108;2022-09-09T04:13:48;4.35;;;2.00;;
51124;SDS011;37163;55.556;39.108;2022-09-09T04:16:17;3.53;;;1.80;;
51124;SDS011;37163;55.556;39.108;2022-09-09T04:18:43;3.10;;;1.70;;
51124;SDS011;37163;55.556;39.108;2022-09-09T04:21:30;2.55;;;1.10;;
51124;SDS011;37163;55.556;39.108;2022-09-09T04:23:58;2.13;;;1.35;;
51124;SDS011;37163;55.556;39.108;2022-09-09T04:26:26;2.17;;;1.25;;
51124;SDS011;37163;55.556;39.108;2022-09-09T04:28:52;1.52;;;1.05;;
51124;SDS011;37163;55.556;39.108;2022-09-09T04:31:20;1.70;;;1.23;;
51124;SDS011;37163;55.556;39.108;2022-09-09T04:33:50;3.08;;;1.10;;
51124;SDS011;37163;55.556;39.108;2022-09-09T04:36:17;1.75;;;0.90;;
51124;SDS011;37163;55.556;39.108;2022-09-09T04:38:49;1.45;;;1.00;;
51124;SDS011;37163;55.556;39.108;2022-09-09T04:41:16;1.92;;;1.00;;
51124;SDS011;37163;55.556;39.108;2022-09-09T04:43:45;1.55;;;1.02;;
51124;SDS011;37163;55.556;39.108;2022-09-09T04:46:13;2.00;;;1.30;;
51124;SDS011;37163;55.556;39.108;2022-09-09T04:48:39;2.92;;;1.05;;
51124;SDS011;37163;55.556;39.108;2022-09-09T04:51:09;2.47;;;1.20;;
51124;SDS011;37163;55.556;39.108;2022-09-09T04:53:37;2.10;;;0.88;;
51124;SDS011;37163;55.556;39.108;2022-09-09T04:56:04;3.10;;;0.90;;
51124;SDS011;37163;55.556;39.108;2022-09-09T04:58:36;1.65;;;1.08;;
51124;SDS011;37163;55.556;39.108;2022-09-09T05:01:28;1.23;;;0.82;;
51124;SDS011;37163;55.556;39.108;2022-09-09T05:04:01;1.95;;;1.00;;
51124;SDS011;37163;55.556;39.108;2022-09-09T05:06:28;2.53;;;0.90;;
51124;SDS011;37163;55.556;39.108;2022-09-09T05:08:59;2.15;;;1.05;;
51124;SDS011;37163;55.556;39.108;2022-09-09T05:11:29;0.93;;;0.80;;
51124;SDS011;37163;55.556;39.108;2022-09-09T05:14:36;2.17;;;1.17;;
51124;SDS011;37163;55.556;39.108;2022-09-09T05:17:04;1.13;;;0.80;;
51124;SDS011;37163;55.556;39.108;2022-09-09T05:19:32;1.25;;;0.98;;
51124;SDS011;37163;55.556;39.108;2022-09-09T05:21:58;2.78;;;1.10;;
51124;SDS011;37163;55.556;39.108;2022-09-09T05:24:34;1.27;;;0.68;;
51124;SDS011;37163;55.556;39.108;2022-09-09T05:27:03;1.45;;;0.77;;
51124;SDS011;37163;55.556;39.108;2022-09-09T05:29:32;1.13;;;0.80;;
51124;SDS011;37163;55.556;39.108;2022-09-09T05:32:04;1.80;;;0.50;;
51124;SDS011;37163;55.556;39.108;2022-09-09T05:34:31;1.52;;;0.75;;
51124;SDS011;37163;55.556;39.108;2022-09-09T05:36:58;1.77;;;0.77;;
51124;SDS011;37163;55.556;39.108;2022-09-09T05:39:25;1.27;;;0.80;;
51124;SDS011;37163;55.556;39.108;2022-09-09T05:41:52;1.02;;;0.55;;
51124;SDS011;37163;55.556;39.108;2022-09-09T05:44:18;2.40;;;0.93;;
51124;SDS011;37163;55.556;39.108;2022-09-09T05:46:45;1.55;;;0.90;;
51124;SDS011;37163;55.556;39.108;2022-09-09T05:49:13;0.77;;;0.60;;
51124;SDS011;37163;55.556;39.108;2022-09-09T05:51:41;1.25;;;0.73;;
51124;SDS011;37163;55.556;39.108;2022-09-09T05:54:11;1.55;;;0.70;;
51124;SDS011;37163;55.556;39.108;2022-09-09T05:56:44;0.90;;;0.70;;
51124;SDS011;37163;55.556;39.108;2022-09-09T05:59:11;1.27;;;0.57;;
51124;SDS011;37163;55.556;39.108;2022-09-09T06:01:39;0.93;;;0.82;;
51124;SDS011;37163;55.556;39.108;2022-09-09T06:04:27;1.85;;;0.80;;
51124;SDS011;37163;55.556;39.108;2022-09-09T06:06:53;1.27;;;0.50;;
51124;SDS011;37163;55.556;39.108;2022-09-09T06:09:21;0.73;;;0.50;;
51124;SDS011;37163;55.556;39.108;2022-09-09T06:11:49;2.40;;;0.77;;
51124;SDS011;37163;55.556;39.108;2022-09-09T06:14:15;1.75;;;0.60;;
51124;SDS011;37163;55.556;39.108;2022-09-09T06:16:46;1.48;;;0.90;;
51124;SDS011;37163;55.556;39.108;2022-09-09T06:19:19;1.50;;;0.70;;
51124;SDS011;37163;55.556;39.108;2022-09-09T06:21:47;1.63;;;0.82;;
51124;SDS011;37163;55.556;39.108;2022-09-09T06:24:15;1.65;;;0.60;;
51124;SDS011;37163;55.556;39.108;2022-09-09T06:26:43;1.55;;;0.93;;
51124;SDS011;37163;55.556;39.108;2022-09-09T06:29:14;1.00;;;0.75;;
51124;SDS011;37163;55.556;39.108;2022-09-09T06:31:42;1.65;;;0.70;;
51124;SDS011;37163;55.556;39.108;2022-09-09T06:34:14;1.13;;;0.65;;
51124;SDS011;37163;55.556;39.108;2022-09-09T06:36:45;2.88;;;0.93;;
51124;SDS011;37163;55.556;39.108;2022-09-09T06:39:12;1.30;;;0.80;;
51124;SDS011;37163;55.556;39.108;2022-09-09T06:41:40;2.53;;;0.80;;
51124;SDS011;37163;55.556;39.108;2022-09-09T06:44:26;1.25;;;0.63;;
51124;SDS011;37163;55.556;39.108;2022-09-09T06:46:52;0.90;;;0.60;;
51124;SDS011;37163;55.556;39.108;2022-09-09T06:49:19;1.95;;;0.60;;
51124;SDS011;37163;55.556;39.108;2022-09-09T06:51:46;4.35;;;1.42;;
51124;SDS011;37163;55.556;39.108;2022-09-09T06:54:13;2.83;;;1.27;;
51124;SDS011;37163;55.556;39.108;2022-09-09T06:56:43;1.70;;;0.90;;
51124;SDS011;37163;55.556;39.108;2022-09-09T06:59:20;1.92;;;0.98;;
51124;SDS011;37163;55.556;39.108;2022-09-09T07:01:48;0.25;;;0.25;;
51124;SDS011;37163;55.556;39.108;2022-09-09T07:04:15;1.92;;;0.73;;
51124;SDS011;37163;55.556;39.108;2022-09-09T07:06:45;2.15;;;0.70;;
51124;SDS011;37163;55.556;39.108;2022-09-09T07:09:22;0.77;;;0.40;;
51124;SDS011;37163;55.556;39.108;2022-09-09T07:11:51;1.60;;;0.65;;
51124;SDS011;37163;55.556;39.108;2022-09-09T07:14:23;0.40;;;0.25;;
51124;SDS011;37163;55.556;39.108;2022-09-09T07:16:56;1.05;;;0.38;;
51124;SDS011;37163;55.556;39.108;2022-09-09T07:19:23;0.32;;;0.20;;
51124;SDS011;37163;55.556;39.108;2022-09-09T07:21:52;0.32;;;0.20;;
51124;SDS011;37163;55.556;39.108;2022-09-09T07:24:21;0.10;;;0.10;;
51124;SDS011;37163;55.556;39.108;2022-09-09T07:26:48;0.90;;;0.40;;
51124;SDS011;37163;55.556;39.108;2022-09-09T07:29:15;1.40;;;0.20;;
51124;SDS011;37163;55.556;39.108;2022-09-09T07:31:44;0.75;;;0.30;;
51124;SDS011;37163;55.556;39.108;2022-09-09T07:34:14;1.20;;;0.50;;
51124;SDS011;37163;55.556;39.108;2022-09-09T07:36:41;0.73;;;0.40;;
51124;SDS011;37163;55.556;39.108;2022-09-09T07:39:12;0.95;;;0.28;;
51124;SDS011;37163;55.556;39.108;2022-09-09T07:41:44;3.55;;;0.90;;
51124;SDS011;37163;55.556;39.108;2022-09-09T07:44:13;3.17;;;0.80;;
51124;SDS011;37163;55.556;39.108;2022-09-09T07:46:48;1.15;;;0.70;;
51124;SDS011;37163;55.556;39.108;2022-09-09T07:49:19;1.88;;;0.65;;
51124;SDS011;37163;55.556;39.108;2022-09-09T07:51:46;0.17;;;0.13;;
51124;SDS011;37163;55.556;39.108;2022-09-09T07:54:17;0.70;;;0.40;;
51124;SDS011;37163;55.556;39.108;2022-09-09T07:56:50;0.35;;;0.35;;
51124;SDS011;37163;55.556;39.108;2022-09-09T07:59:18;0.57;;;0.30;;
51124;SDS011;37163;55.556;39.108;2022-09-09T08:02:04;0.57;;;0.20;;
51124;SDS011;37163;55.556;39.108;2022-09-09T08:04:34;1.58;;;0.30;;
51124;SDS011;37163;55.556;39.108;2022-09-09T08:07:02;1.55;;;0.73;;
51124;SDS011;37163;55.556;39.108;2022-09-09T08:09:33;1.95;;;1.27;;
51124;SDS011;37163;55.556;39.108;2022-09-09T08:12:06;1.63;;;0.98;;
51124;SDS011;37163;55.556;39.108;2022-09-09T08:14:34;3.40;;;1.80;;
51124;SDS011;37163;55.556;39.108;2022-09-09T08:17:01;2.25;;;0.60;;
51124;SDS011;37163;55.556;39.108;2022-09-09T08:19:29;0.38;;;0.30;;
51124;SDS011;37163;55.556;39.108;2022-09-09T08:21:58;1.63;;;0.43;;
51124;SDS011;37163;55.556;39.108;2022-09-09T08:24:24;1.17;;;0.47;;
51124;SDS011;37163;55.556;39.108;2022-09-09T08:26:51;0.60;;;0.47;;
51124;SDS011;37163;55.556;39.108;2022-09-09T08:29:22;1.20;;;0.80;;
51124;SDS011;37163;55.556;39.108;2022-09-09T08:31:52;0.40;;;0.28;;
51124;SDS011;37163;55.556;39.108;2022-09-09T08:34:39;1.02;;;0.60;;
51124;SDS011;37163;55.556;39.108;2022-09-09T08:37:09;2.53;;;0.40;;
51124;SDS011;37163;55.556;39.108;2022-09-09T08:39:39;0.95;;;0.40;;
51124;SDS011;37163;55.556;39.108;2022-09-09T08:42:12;1.38;;;0.30;;
51124;SDS011;37163;55.556;39.108;2022-09-09T08:44:57;0.47;;;0.22;;
51124;SDS011;37163;55.556;39.108;2022-09-09T08:50:51;0.45;;;0.30;;
51124;SDS011;37163;55.556;39.108;2022-09-09T08:53:23;0.20;;;0.20;;
51124;SDS011;37163;55.556;39.108;2022-09-09T08:55:57;0.80;;;0.40;;
51124;SDS011;37163;55.556;39.108;2022-09-09T08:58:32;1.30;;;0.60;;
51124;SDS011;37163;55.556;39.108;2022-09-09T09:11:39;0.95;;;0.25;;
51124;SDS011;37163;55.556;39.108;2022-09-09T09:19:41;1.98;;;0.90;;
51124;SDS011;37163;55.556;39.108;2022-09-09T09:24:56;0.90;;;0.60;;
51124;SDS011;37163;55.556;39.108;2022-09-09T09:27:33;1.00;;;0.50;;
51124;SDS011;37163;55.556;39.108;2022-09-09T09:30:25;0.45;;;0.40;;
51124;SDS011;37163;55.556;39.108;2022-09-09T09:33:15;0.80;;;0.40;;
51124;SDS011;37163;55.556;39.108;2022-09-09T09:35:58;0.90;;;0.43;;
51124;SDS011;37163;55.556;39.108;2022-09-09T09:38:29;0.77;;;0.50;;
51124;SDS011;37163;55.556;39.108;2022-09-09T09:40:58;0.30;;;0.22;;
51124;SDS011;37163;55.556;39.108;2022-09-09T09:43:28;4.03;;;0.40;;
51124;SDS011;37163;55.556;39.108;2022-09-09T09:45:58;0.77;;;0.45;;
51124;SDS011;37163;55.556;39.108;2022-09-09T09:48:26;1.55;;;0.50;;
51124;SDS011;37163;55.556;39.108;2022-09-09T09:50:58;0.95;;;0.30;;
51124;SDS011;37163;55.556;39.108;2022-09-09T09:53:32;0.95;;;0.45;;
51124;SDS011;37163;55.556;39.108;2022-09-09T09:56:04;0.32;;;0.28;;
51124;SDS011;37163;55.556;39.108;2022-09-09T10:01:24;0.30;;;0.30;;
51124;SDS011;37163;55.556;39.108;2022-09-09T10:04:23;0.25;;;0.20;;
51124;SDS011;37163;55.556;39.108;2022-09-09T10:06:56;0.60;;;0.25;;
51124;SDS011;37163;55.556;39.108;2022-09-09T10:09:29;2.03;;;0.47;;
51124;SDS011;37163;55.556;39.108;2022-09-09T10:17:17;0.22;;;0.22;;
51124;SDS011;37163;55.556;39.108;2022-09-09T10:28:29;2.17;;;0.40;;
51124;SDS011;37163;55.556;39.108;2022-09-09T10:36:26;1.05;;;0.30;;
51124;SDS011;37163;55.556;39.108;2022-09-09T10:39:03;0.88;;;0.43;;
51124;SDS011;37163;55.556;39.108;2022-09-09T10:47:33;2.63;;;1.20;;
51124;SDS011;37163;55.556;39.108;2022-09-09T10:50:36;2.97;;;1.20;;
51124;SDS011;37163;55.556;39.108;2022-09-09T10:55:52;1.38;;;0.45;;
51124;SDS011;37163;55.556;39.108;2022-09-09T10:59:09;0.20;;;0.20;;
51124;SDS011;37163;55.556;39.108;2022-09-09T11:01:24;0.52;;;0.30;;
51124;SDS011;37163;55.556;39.108;2022-09-09T11:04:01;0.45;;;0.30;;
51124;SDS011;37163;55.556;39.108;2022-09-09T11:06:34;0.57;;;0.50;;
51124;SDS011;37163;55.556;39.108;2022-09-09T11:09:04;0.77;;;0.40;;
51124;SDS011;37163;55.556;39.108;2022-09-09T11:11:35;0.65;;;0.30;;
51124;SDS011;37163;55.556;39.108;2022-09-09T11:17:02;2.50;;;0.82;;
51124;SDS011;37163;55.556;39.108;2022-09-09T11:19:33;0.80;;;0.45;;
51124;SDS011;37163;55.556;39.108;2022-09-09T11:24:50;2.55;;;1.13;;
51124;SDS011;37163;55.556;39.108;2022-09-09T11:27:21;0.98;;;0.68;;
51124;SDS011;37163;55.556;39.108;2022-09-09T11:42:06;0.88;;;0.50;;
51124;SDS011;37163;55.556;39.108;2022-09-09T11:44:38;0.28;;;0.20;;
51124;SDS011;37163;55.556;39.108;2022-09-09T11:47:15;1.38;;;0.40;;
51124;SDS011;37163;55.556;39.108;2022-09-09T11:49:49;0.60;;;0.38;;
51124;SDS011;37163;55.556;39.108;2022-09-09T11:52:35;0.50;;;0.32;;
51124;SDS011;37163;55.556;39.108;2022-09-09T11:58:04;0.75;;;0.30;;
51124;SDS011;37163;55.556;39.108;2022-09-09T12:00:38;0.60;;;0.25;;
51124;SDS011;37163;55.556;39.108;2022-09-09T12:06:11;0.30;;;0.10;;
51124;SDS011;37163;55.556;39.108;2022-09-09T12:08:44;1.33;;;0.30;;
51124;SDS011;37163;55.556;39.108;2022-09-09T12:11:23;1.02;;;0.28;;
51124;SDS011;37163;55.556;39.108;2022-09-09T12:13:57;2.22;;;0.80;;
51124;SDS011;37163;55.556;39.108;2022-09-09T12:16:32;2.63;;;1.23;;
51124;SDS011;37163;55.556;39.108;2022-09-09T12:19:33;1.92;;;1.10;;
51124;SDS011;37163;55.556;39.108;2022-09-09T12:24:43;3.80;;;0.85;;
51124;SDS011;37163;55.556;39.108;2022-09-09T12:30:10;1.70;;;0.60;;
51124;SDS011;37163;55.556;39.108;2022-09-09T12:32:38;1.45;;;1.02;;
51124;SDS011;37163;55.556;39.108;2022-09-09T12:37:42;2.42;;;0.70;;
51124;SDS011;37163;55.556;39.108;2022-09-09T12:40:23;1.30;;;0.55;;
51124;SDS011;37163;55.556;39.108;2022-09-09T12:42:51;1.45;;;0.95;;
51124;SDS011;37163;55.556;39.108;2022-09-09T12:45:24;1.75;;;0.47;;
51124;SDS011;37163;55.556;39.108;2022-09-09T12:47:53;1.60;;;0.85;;
51124;SDS011;37163;55.556;39.108;2022-09-09T12:50:24;1.23;;;0.93;;
51124;SDS011;37163;55.556;39.108;2022-09-09T12:52:53;1.15;;;0.80;;
51124;SDS011;37163;55.556;39.108;2022-09-09T12:55:49;0.82;;;0.40;;
51124;SDS011;37163;55.556;39.108;2022-09-09T12:58:17;0.40;;;0.40;;
51124;SDS011;37163;55.556;39.108;2022-09-09T13:00:49;0.77;;;0.60;;
51124;SDS011;37163;55.556;39.108;2022-09-09T13:03:20;1.13;;;0.50;;
51124;SDS011;37163;55.556;39.108;2022-09-09T13:05:47;2.63;;;1.30;;
51124;SDS011;37163;55.556;39.108;2022-09-09T13:08:14;4.90;;;2.30;;
51124;SDS011;37163;55.556;39.108;2022-09-09T13:10:51;1.38;;;0.82;;
51124;SDS011;37163;55.556;39.108;2022-09-09T13:13:43;3.42;;;1.40;;
51124;SDS011;37163;55.556;39.108;2022-09-09T13:16:19;1.67;;;1.20;;
51124;SDS011;37163;55.556;39.108;2022-09-09T13:18:48;1.65;;;0.90;;
51124;SDS011;37163;55.556;39.108;2022-09-09T13:21:15;1.20;;;0.80;;
51124;SDS011;37163;55.556;39.108;2022-09-09T13:23:41;1.40;;;0.63;;
51124;SDS011;37163;55.556;39.108;2022-09-09T13:26:21;1.30;;;0.90;;
51124;SDS011;37163;55.556;39.108;2022-09-09T13:28:48;3.15;;;1.10;;
51124;SDS011;37163;55.556;39.108;2022-09-09T13:31:22;3.28;;;1.00;;
51124;SDS011;37163;55.556;39.108;2022-09-09T13:33:52;1.58;;;1.30;;
51124;SDS011;37163;55.556;39.108;2022-09-09T13:36:27;1.58;;;0.65;;
51124;SDS011;37163;55.556;39.108;2022-09-09T13:38:58;0.93;;;0.82;;
51124;SDS011;37163;55.556;39.108;2022-09-09T13:41:28;1.63;;;0.70;;
51124;SDS011;37163;55.556;39.108;2022-09-09T13:46:31;3.15;;;0.90;;
51124;SDS011;37163;55.556;39.108;2022-09-09T13:54:09;4.20;;;2.78;;
51124;SDS011;37163;55.556;39.108;2022-09-09T13:56:36;6.18;;;4.45;;
51124;SDS011;37163;55.556;39.108;2022-09-09T13:59:04;4.32;;;2.95;;
51124;SDS011;37163;55.556;39.108;2022-09-09T14:01:32;2.55;;;0.80;;
51124;SDS011;37163;55.556;39.108;2022-09-09T14:04:00;1.60;;;0.55;;
51124;SDS011;37163;55.556;39.108;2022-09-09T14:06:27;1.13;;;0.60;;
51124;SDS011;37163;55.556;39.108;2022-09-09T14:08:54;2.05;;;0.88;;
51124;SDS011;37163;55.556;39.108;2022-09-09T14:11:21;1.27;;;0.82;;
51124;SDS011;37163;55.556;39.108;2022-09-09T14:16:32;0.93;;;0.70;;
51124;SDS011;37163;55.556;39.108;2022-09-09T14:18:59;1.77;;;1.00;;
51124;SDS011;37163;55.556;39.108;2022-09-09T14:21:25;1.42;;;0.80;;
51124;SDS011;37163;55.556;39.108;2022-09-09T14:23:52;3.15;;;1.05;;
51124;SDS011;37163;55.556;39.108;2022-09-09T14:26:19;2.65;;;1.15;;
51124;SDS011;37163;55.556;39.108;2022-09-09T14:28:47;3.92;;;1.85;;
51124;SDS011;37163;55.556;39.108;2022-09-09T14:31:14;1.70;;;1.20;;
51124;SDS011;37163;55.556;39.108;2022-09-09T14:33:43;2.10;;;0.90;;
51124;SDS011;37163;55.556;39.108;2022-09-09T14:36:10;2.75;;;1.30;;
51124;SDS011;37163;55.556;39.108;2022-09-09T14:38:37;2.33;;;1.35;;
51124;SDS011;37163;55.556;39.108;2022-09-09T14:41:15;1.10;;;0.80;;
51124;SDS011;37163;55.556;39.108;2022-09-09T14:43:43;0.70;;;0.57;;
51124;SDS011;37163;55.556;39.108;2022-09-09T14:46:11;1.45;;;1.25;;
51124;SDS011;37163;55.556;39.108;2022-09-09T14:48:39;6.07;;;2.80;;
51124;SDS011;37163;55.556;39.108;2022-09-09T14:51:13;4.07;;;1.92;;
51124;SDS011;37163;55.556;39.108;2022-09-09T14:53:42;3.72;;;1.58;;
51124;SDS011;37163;55.556;39.108;2022-09-09T14:56:10;4.13;;;1.98;;
51124;SDS011;37163;55.556;39.108;2022-09-09T14:58:41;4.13;;;3.40;;
51124;SDS011;37163;55.556;39.108;2022-09-09T15:01:10;2.58;;;1.42;;
51124;SDS011;37163;55.556;39.108;2022-09-09T15:03:38;1.10;;;0.90;;
51124;SDS011;37163;55.556;39.108;2022-09-09T15:06:07;1.90;;;0.73;;
51124;SDS011;37163;55.556;39.108;2022-09-09T15:08:37;0.63;;;0.50;;
51124;SDS011;37163;55.556;39.108;2022-09-09T15:11:07;1.02;;;0.60;;
51124;SDS011;37163;55.556;39.108;2022-09-09T15:13:34;0.85;;;0.77;;
51124;SDS011;37163;55.556;39.108;2022-09-09T15:16:10;1.73;;;0.90;;
51124;SDS011;37163;55.556;39.108;2022-09-09T15:18:53;1.45;;;0.68;;
51124;SDS011;37163;55.556;39.108;2022-09-09T15:21:22;2.03;;;0.70;;
51124;SDS011;37163;55.556;39.108;2022-09-09T15:23:50;3.58;;;2.28;;
51124;SDS011;37163;55.556;39.108;2022-09-09T15:26:17;4.72;;;2.53;;
51124;SDS011;37163;55.556;39.108;2022-09-09T15:28:44;5.50;;;2.10;;
51124;SDS011;37163;55.556;39.108;2022-09-09T15:31:14;3.55;;;1.58;;
51124;SDS011;37163;55.556;39.108;2022-09-09T15:33:55;3.35;;;1.40;;
51124;SDS011;37163;55.556;39.108;2022-09-09T15:36:33;2.17;;;1.33;;
51124;SDS011;37163;55.556;39.108;2022-09-09T15:39:01;2.25;;;1.15;;
51124;SDS011;37163;55.556;39.108;2022-09-09T15:41:28;1.58;;;1.20;;
51124;SDS011;37163;55.556;39.108;2022-09-09T15:43:57;2.28;;;1.13;;
51124;SDS011;37163;55.556;39.108;2022-09-09T15:48:55;2.30;;;1.50;;
51124;SDS011;37163;55.556;39.108;2022-09-09T15:51:23;2.33;;;0.88;;
51124;SDS011;37163;55.556;39.108;2022-09-09T15:53:54;2.97;;;1.00;;
51124;SDS011;37163;55.556;39.108;2022-09-09T15:56:22;1.13;;;0.70;;
51124;SDS011;37163;55.556;39.108;2022-09-09T15:58:49;1.90;;;0.77;;
51124;SDS011;37163;55.556;39.108;2022-09-09T16:01:17;2.22;;;0.95;;
51124;SDS011;37163;55.556;39.108;2022-09-09T16:03:45;2.53;;;0.80;;
51124;SDS011;37163;55.556;39.108;2022-09-09T16:06:16;1.60;;;0.93;;
51124;SDS011;37163;55.556;39.108;2022-09-09T16:08:44;1.60;;;0.95;;
51124;SDS011;37163;55.556;39.108;2022-09-09T16:11:13;2.20;;;0.80;;
51124;SDS011;37163;55.556;39.108;2022-09-09T16:13:41;1.20;;;0.63;;
51124;SDS011;37163;55.556;39.108;2022-09-09T16:16:12;1.15;;;0.55;;
51124;SDS011;37163;55.556;39.108;2022-09-09T16:18:44;1.58;;;0.80;;
51124;SDS011;37163;55.556;39.108;2022-09-09T16:21:13;1.98;;;1.17;;
51124;SDS011;37163;55.556;39.108;2022-09-09T16:23:41;3.20;;;1.60;;
51124;SDS011;37163;55.556;39.108;2022-09-09T16:26:12;2.65;;;1.27;;
51124;SDS011;37163;55.556;39.108;2022-09-09T16:28:40;4.05;;;1.48;;
51124;SDS011;37163;55.556;39.108;2022-09-09T16:31:11;2.58;;;1.38;;
51124;SDS011;37163;55.556;39.108;2022-09-09T16:33:40;5.10;;;1.73;;
51124;SDS011;37163;55.556;39.108;2022-09-09T16:36:11;2.72;;;1.23;;
51124;SDS011;37163;55.556;39.108;2022-09-09T16:38:39;3.22;;;1.60;;
51124;SDS011;37163;55.556;39.108;2022-09-09T16:41:06;3.38;;;1.23;;
51124;SDS011;37163;55.556;39.108;2022-09-09T16:43:34;5.43;;;1.70;;
51124;SDS011;37163;55.556;39.108;2022-09-09T16:46:15;4.35;;;1.70;;
51124;SDS011;37163;55.556;39.108;2022-09-09T16:48:45;2.67;;;1.40;;
51124;SDS011;37163;55.556;39.108;2022-09-09T16:51:17;3.05;;;1.33;;
51124;SDS011;37163;55.556;39.108;2022-09-09T16:53:45;2.28;;;1.15;;
51124;SDS011;37163;55.556;39.108;2022-09-09T16:56:13;2.88;;;1.40;;
51124;SDS011;37163;55.556;39.108;2022-09-09T16:58:41;3.38;;;1.95;;
51124;SDS011;37163;55.556;39.108;2022-09-09T17:01:10;3.28;;;1.50;;
51124;SDS011;37163;55.556;39.108;2022-09-09T17:03:40;2.78;;;1.60;;
51124;SDS011;37163;55.556;39.108;2022-09-09T17:06:10;3.50;;;1.38;;
51124;SDS011;37163;55.556;39.108;2022-09-09T17:08:38;3.55;;;1.48;;
51124;SDS011;37163;55.556;39.108;2022-09-09T17:11:13;3.28;;;1.60;;
51124;SDS011;37163;55.556;39.108;2022-09-09T17:13:41;3.22;;;1.52;;
51124;SDS011;37163;55.556;39.108;2022-09-09T17:16:09;3.63;;;1.70;;
51124;SDS011;37163;55.556;39.108;2022-09-09T17:18:36;7.43;;;2.13;;
51124;SDS011;37163;55.556;39.108;2022-09-09T17:21:12;4.07;;;1.77;;
51124;SDS011;37163;55.556;39.108;2022-09-09T17:23:40;3.20;;;1.70;;
51124;SDS011;37163;55.556;39.108;2022-09-09T17:26:08;3.63;;;2.05;;
51124;SDS011;37163;55.556;39.108;2022-09-09T17:28:37;5.00;;;2.42;;
51124;SDS011;37163;55.556;39.108;2022-09-09T17:31:05;3.92;;;1.63;;
51124;SDS011;37163;55.556;39.108;2022-09-09T17:33:33;2.92;;;1.60;;